Time;durP1;ratioP1;P1;durP2;ratioP2;P2;SDS_P1;SDS_P2;PMS_P1;PMS_P2;Temp;Humidity;BMP_temperature;BMP_pressure;BME280_temperature;BME280_humidity;BME280_pressure;Samples;Min_cycle;Max_cycle;Signal;HPM_P1;HPM_P2
2021/07/02 08:02:28;;;;;;;665.55;624.45;;;15.70;99.90;;;;;;5091409;27;20524;-76
2021/07/02 08:04:54;;;;;;;706.38;662.78;;;15.50;99.90;;;;;;5090830;28;20625;-77
2021/07/02 08:07:19;;;;;;;709.38;665.58;;;15.60;99.90;;;;;;5090841;28;20164;-75
2021/07/02 08:09:45;;;;;;;714.92;670.92;;;15.60;99.90;;;;;;5090780;28;20167;-75
2021/07/02 08:12:11;;;;;;;716.10;671.97;;;15.70;99.90;;;;;;5090669;28;20171;-75
2021/07/02 08:14:38;;;;;;;740.40;694.50;;;15.70;99.90;;;;;;5090694;28;20225;-75
2021/07/02 08:17:04;;;;;;;750.15;703.42;;;15.80;99.90;;;;;;5090718;28;20167;-74
2021/07/02 08:19:29;;;;;;;715.50;671.40;;;15.60;99.90;;;;;;5090719;28;20176;-75
2021/07/02 08:21:55;;;;;;;706.60;663.10;;;15.60;99.90;;;;;;5090408;28;20210;-73
2021/07/02 08:24:20;;;;;;;728.80;683.63;;;15.50;99.90;;;;;;5089269;28;20691;-74
2021/07/02 08:26:48;;;;;;;671.50;630.95;;;15.50;99.90;;;;;;5090556;28;20507;-75
2021/07/02 08:29:23;;;;;;;709.53;665.90;;;15.40;99.90;;;;;;5090388;28;20168;-75
2021/07/02 08:31:49;;;;;;;661.05;621.40;;;15.20;99.90;;;;;;5090498;28;20186;-74
2021/07/02 08:34:15;;;;;;;669.78;629.60;;;15.10;99.90;;;;;;5090381;28;20651;-74
2021/07/02 08:36:41;;;;;;;672.65;632.05;;;15.00;99.90;;;;;;5090299;28;20259;-74
2021/07/02 08:39:06;;;;;;;708.10;664.50;;;14.90;99.90;;;;;;5090342;28;20172;-85
2021/07/02 08:41:32;;;;;;;688.40;646.50;;;14.90;99.90;;;;;;5090295;28;20249;-80
2021/07/02 08:43:59;;;;;;;687.58;645.65;;;15.00;99.90;;;;;;5090183;28;20167;-75
2021/07/02 08:46:25;;;;;;;691.97;649.75;;;15.00;99.90;;;;;;5090278;28;20175;-76
2021/07/02 08:48:53;;;;;;;666.95;626.85;;;15.00;99.90;;;;;;5090424;28;20225;-78
2021/07/02 08:51:19;;;;;;;694.67;651.97;;;15.00;99.90;;;;;;5090343;28;20176;-78
2021/07/02 08:53:46;;;;;;;698.60;655.67;;;15.00;99.90;;;;;;5090314;28;20175;-79
2021/07/02 08:56:11;;;;;;;707.58;664.00;;;15.00;99.90;;;;;;5090217;28;20168;-78
2021/07/02 08:58:37;;;;;;;667.72;627.50;;;15.10;99.90;;;;;;5090143;28;20255;-77
2021/07/02 09:01:08;;;;;;;680.63;639.17;;;15.10;99.90;;;;;;5090156;28;20306;-78
2021/07/02 09:03:39;;;;;;;729.15;684.17;;;15.30;99.90;;;;;;5090431;28;20195;-78
2021/07/02 09:06:17;;;;;;;726.75;681.70;;;15.40;99.90;;;;;;5090341;28;20173;-78
2021/07/02 09:09:16;;;;;;;648.22;609.72;;;15.50;99.90;;;;;;5089943;28;20186;-78
2021/07/02 09:11:41;;;;;;;638.60;600.85;;;15.50;99.90;;;;;;5087470;28;20551;-74
2021/07/02 09:14:09;;;;;;;663.90;624.10;;;15.50;99.90;;;;;;5074825;28;20172;-74
2021/07/02 09:16:41;;;;;;;669.22;628.72;;;15.60;99.90;;;;;;5075182;28;20169;-74
2021/07/02 09:19:24;;;;;;;723.67;678.97;;;15.60;99.90;;;;;;5076527;28;20266;-77
2021/07/02 09:21:51;;;;;;;692.95;650.78;;;15.80;99.90;;;;;;5076240;28;20258;-76
2021/07/02 09:24:43;;;;;;;757.80;710.42;;;16.00;99.90;;;;;;5076358;28;20165;-74
2021/07/02 09:27:29;;;;;;;763.42;715.50;;;16.20;99.90;;;;;;5076071;28;20617;-74
2021/07/02 09:30:15;;;;;;;754.08;706.90;;;16.40;99.90;;;;;;5076132;28;20172;-73
2021/07/02 09:32:44;;;;;;;803.35;751.55;;;16.50;99.90;;;;;;5075018;28;20172;-73
2021/07/02 09:35:11;;;;;;;826.28;772.25;;;16.60;99.90;;;;;;5075956;28;20168;-73
2021/07/02 09:40:13;;;;;;;776.67;726.88;;;16.80;99.90;;;;;;5075497;28;20183;-75
2021/07/02 09:42:39;;;;;;;818.65;765.17;;;16.70;99.90;;;;;;5075628;28;20156;-75
2021/07/02 09:45:07;;;;;;;796.95;745.33;;;16.60;99.90;;;;;;5075514;28;20199;-74
2021/07/02 09:47:35;;;;;;;781.95;731.70;;;16.60;99.90;;;;;;5075497;28;20645;-76
2021/07/02 09:50:26;;;;;;;803.45;751.45;;;16.70;99.90;;;;;;5075418;28;20683;-74
2021/07/02 09:52:55;;;;;;;833.17;778.30;;;16.70;99.90;;;;;;5074392;28;20537;-72
2021/07/02 09:55:25;;;;;;;839.60;783.88;;;16.70;99.90;;;;;;5075325;28;20164;-74
2021/07/02 09:58:02;;;;;;;839.65;783.47;;;16.70;99.90;;;;;;5075288;28;20165;-74
2021/07/02 10:00:28;;;;;;;833.30;778.05;;;16.80;99.90;;;;;;5074982;28;20224;-75
2021/07/02 10:02:59;;;;;;;821.47;767.35;;;16.90;99.90;;;;;;5075181;28;20171;-74
2021/07/02 10:05:26;;;;;;;750.95;703.13;;;17.00;99.90;;;;;;5075162;28;20165;-75
2021/07/02 10:08:02;;;;;;;804.10;751.70;;;17.00;99.90;;;;;;5075051;28;20168;-75
2021/07/02 10:10:29;;;;;;;798.25;746.28;;;17.10;99.90;;;;;;5073793;28;20233;-75
2021/07/02 10:12:56;;;;;;;797.97;745.47;;;17.20;99.90;;;;;;5075336;28;20171;-75
2021/07/02 10:15:22;;;;;;;827.22;772.25;;;17.10;99.90;;;;;;5074970;28;20165;-75
2021/07/02 10:17:48;;;;;;;850.90;793.47;;;17.10;99.90;;;;;;5074939;28;20575;-75
2021/07/02 10:20:15;;;;;;;804.58;751.83;;;17.10;99.90;;;;;;5074755;28;20177;-75
2021/07/02 10:22:44;;;;;;;801.53;749.22;;;17.10;99.90;;;;;;5074709;28;20188;-75
2021/07/02 10:25:17;;;;;;;796.97;745.15;;;17.10;99.90;;;;;;5073759;28;20247;-74
2021/07/02 10:27:43;;;;;;;735.50;689.20;;;17.10;99.90;;;;;;5074689;28;20180;-74
2021/07/02 10:30:09;;;;;;;707.95;663.83;;;17.20;99.90;;;;;;5074604;28;20242;-71
2021/07/02 10:32:37;;;;;;;762.00;713.17;;;17.10;99.90;;;;;;5074774;28;20211;-70
2021/07/02 10:35:05;;;;;;;818.80;764.60;;;17.20;99.90;;;;;;5075212;28;20171;-70
2021/07/02 10:37:32;;;;;;;778.80;728.35;;;17.40;99.90;;;;;;5077577;28;20194;-71
2021/07/02 10:40:00;;;;;;;763.85;714.47;;;17.60;99.90;;;;;;5073684;28;20176;-70
2021/07/02 10:42:26;;;;;;;721.72;676.50;;;17.70;99.90;;;;;;5074661;28;20291;-70
2021/07/02 10:44:56;;;;;;;706.22;662.35;;;17.80;99.90;;;;;;5074532;28;20221;-70
2021/07/02 10:47:23;;;;;;;668.90;627.95;;;17.70;99.90;;;;;;5074712;28;20241;-70
2021/07/02 10:49:50;;;;;;;747.17;699.72;;;17.60;99.90;;;;;;5074541;28;20168;-70
2021/07/02 10:52:31;;;;;;;667.22;626.38;;;17.70;99.90;;;;;;5074557;28;20218;-73
2021/07/02 10:54:57;;;;;;;724.03;678.28;;;17.70;99.90;;;;;;5074542;28;20172;-73
2021/07/02 10:57:27;;;;;;;741.75;694.50;;;17.70;99.90;;;;;;5074372;28;20179;-73
2021/07/02 10:59:53;;;;;;;699.67;656.13;;;17.80;99.90;;;;;;5074238;28;20222;-73
2021/07/02 11:02:20;;;;;;;781.20;730.17;;;17.90;99.90;;;;;;5074092;28;20681;-74
2021/07/02 11:04:50;;;;;;;761.58;712.63;;;17.90;99.90;;;;;;5072951;28;20582;-73
2021/07/02 11:07:22;;;;;;;773.85;723.42;;;18.00;99.90;;;;;;5074398;28;20160;-74
2021/07/02 11:09:50;;;;;;;806.97;753.13;;;18.00;99.90;;;;;;5074299;28;20609;-73
2021/07/02 11:12:20;;;;;;;901.80;836.78;;;18.10;99.90;;;;;;5074194;28;20644;-73
2021/07/02 11:14:51;;;;;;;816.60;761.55;;;18.20;99.90;;;;;;5074038;28;20177;-74
2021/07/02 11:17:21;;;;;;;804.58;750.75;;;18.40;99.90;;;;;;5074250;28;20243;-72
2021/07/02 11:19:48;;;;;;;811.50;756.67;;;18.40;99.90;;;;;;5074069;28;20168;-72
2021/07/02 11:22:28;;;;;;;807.30;753.00;;;18.50;99.90;;;;;;5073798;28;20196;-72
2021/07/02 11:25:03;;;;;;;775.10;723.90;;;18.40;99.90;;;;;;5073857;28;20180;-72
2021/07/02 11:27:34;;;;;;;785.05;733.55;;;18.30;99.90;;;;;;5073868;28;20164;-72
2021/07/02 11:30:02;;;;;;;778.97;727.58;;;18.20;99.90;;;;;;5074092;28;20160;-76
2021/07/02 11:32:32;;;;;;;789.50;737.33;;;18.00;99.90;;;;;;5076320;28;20192;-77
2021/07/02 11:35:20;;;;;;;836.42;779.35;;;17.90;99.90;;;;;;5081791;28;20169;-77
2021/07/02 11:40:38;;;;;;;802.47;748.67;;;18.20;99.90;;;;;;5073575;28;20645;-77
2021/07/02 11:43:06;;;;;;;812.78;757.88;;;18.30;99.90;;;;;;5073896;28;20171;-76
2021/07/02 11:45:55;;;;;;;842.72;784.88;;;18.50;99.90;;;;;;5072675;28;20168;-76
2021/07/02 11:48:23;;;;;;;776.67;724.92;;;18.70;99.90;;;;;;5073741;28;20169;-76
2021/07/02 11:50:54;;;;;;;886.63;823.67;;;18.80;99.90;;;;;;5072414;28;20172;-76
2021/07/02 11:53:35;;;;;;;824.70;768.72;;;19.00;99.90;;;;;;5073651;28;20168;-74
2021/07/02 11:56:09;;;;;;;761.60;711.63;;;19.10;99.90;;;;;;5073765;28;20273;-73
2021/07/02 11:58:38;;;;;;;850.65;791.70;;;19.00;99.90;;;;;;5073674;28;20170;-73
2021/07/02 12:01:07;;;;;;;832.92;776.10;;;19.20;99.90;;;;;;5073154;28;20319;-74
2021/07/02 12:03:34;;;;;;;784.70;733.08;;;19.40;99.90;;;;;;5073475;28;20168;-73
2021/07/02 12:06:02;;;;;;;876.78;815.55;;;19.50;99.90;;;;;;5073467;28;20633;-73
2021/07/02 12:08:29;;;;;;;872.28;811.22;;;19.60;99.90;;;;;;5073454;28;20248;-73
2021/07/02 12:11:00;;;;;;;820.25;764.85;;;19.70;99.90;;;;;;5073683;28;20163;-75
2021/07/02 12:13:27;;;;;;;909.20;844.65;;;19.80;99.90;;;;;;5073513;28;20164;-74
2021/07/02 12:16:06;;;;;;;871.65;810.95;;;19.80;99.90;;;;;;5073511;28;20164;-75
2021/07/02 12:18:32;;;;;;;852.50;793.67;;;19.70;99.90;;;;;;5073386;28;20563;-73
2021/07/02 12:20:58;;;;;;;904.80;840.72;;;19.50;99.90;;;;;;5073308;28;20199;-74
2021/07/02 12:23:33;;;;;;;884.95;823.05;;;19.50;99.90;;;;;;5073453;28;20164;-73
2021/07/02 12:26:20;;;;;;;894.53;831.05;;;19.40;99.90;;;;;;5073140;28;20183;-75
2021/07/02 12:29:07;;;;;;;936.40;868.88;;;19.50;99.90;;;;;;5073370;28;20194;-74
2021/07/02 12:31:36;;;;;;;910.58;845.53;;;19.60;99.90;;;;;;5073305;28;20168;-73
2021/07/02 12:34:03;;;;;;;906.80;843.25;;;19.70;99.90;;;;;;5073085;28;20205;-73
2021/07/02 12:36:30;;;;;;;833.25;777.40;;;19.80;99.90;;;;;;5073202;28;20561;-71
2021/07/02 12:39:04;;;;;;;833.25;777.38;;;19.90;99.90;;;;;;5072103;28;20176;-72
2021/07/02 12:41:48;;;;;;;814.65;760.42;;;19.90;99.90;;;;;;5073613;28;20195;-73
2021/07/02 12:44:22;;;;;;;830.35;774.60;;;19.70;99.90;;;;;;5073383;28;20164;-74
2021/07/02 12:46:48;;;;;;;875.08;814.85;;;19.50;99.90;;;;;;5073382;28;20156;-76
2021/07/02 12:49:28;;;;;;;879.85;819.13;;;19.40;99.90;;;;;;5076748;28;20172;-73
2021/07/02 12:55:14;;;;;;;859.63;800.42;;;19.20;99.90;;;;;;5076838;28;20211;-73
2021/07/02 12:57:48;;;;;;;913.97;848.53;;;19.20;99.90;;;;;;5076771;28;20175;-76
2021/07/02 13:00:23;;;;;;;928.58;862.00;;;19.20;99.90;;;;;;5076473;28;20625;-73
2021/07/02 13:02:51;;;;;;;957.85;887.92;;;19.30;99.90;;;;;;5076727;28;20160;-73
2021/07/02 13:05:20;;;;;;;896.30;834.13;;;19.40;99.90;;;;;;5076559;28;20167;-73
2021/07/02 13:08:00;;;;;;;862.20;803.95;;;19.50;99.90;;;;;;5075280;28;20551;-79
2021/07/02 13:10:26;;;;;;;839.80;783.58;;;19.50;99.90;;;;;;5076723;28;20247;-80
2021/07/02 13:13:04;;;;;;;802.47;749.83;;;19.60;99.90;;;;;;5075395;28;20255;-78
2021/07/02 13:15:31;;;;;;;842.00;785.72;;;19.70;99.90;;;;;;5076579;28;20625;-79
2021/07/02 13:17:57;;;;;;;832.85;777.90;;;19.90;99.90;;;;;;5076557;28;20588;-79
2021/07/02 13:20:23;;;;;;;854.10;797.13;;;20.10;99.90;;;;;;5076109;28;20243;-74
2021/07/02 13:23:04;;;;;;;774.08;724.47;;;20.10;99.90;;;;;;5076422;28;20171;-72
2021/07/02 13:25:30;;;;;;;752.05;703.78;;;19.90;99.90;;;;;;5076127;28;20175;-77
2021/07/02 13:27:59;;;;;;;819.40;765.67;;;19.80;99.90;;;;;;5075054;28;20164;-73
2021/07/02 13:30:27;;;;;;;751.60;703.88;;;19.60;99.90;;;;;;5076263;28;20168;-76
2021/07/02 13:33:10;;;;;;;795.42;743.53;;;19.50;99.90;;;;;;5076349;28;20251;-73
2021/07/02 13:35:40;;;;;;;914.33;850.03;;;19.30;99.90;;;;;;5076117;28;20175;-77
2021/07/02 13:38:14;;;;;;;857.42;799.55;;;19.30;99.90;;;;;;5075858;28;20168;-72
2021/07/02 13:40:41;;;;;;;909.42;846.28;;;19.50;99.90;;;;;;5075989;28;20192;-72
2021/07/02 13:43:15;;;;;;;864.15;805.83;;;19.70;99.90;;;;;;5075862;28;20255;-72
2021/07/02 13:45:56;;;;;;;766.85;717.75;;;19.80;99.90;;;;;;5076097;28;20168;-72
2021/07/02 13:48:22;;;;;;;843.95;787.75;;;20.20;99.90;;;;;;5076039;28;20160;-72
2021/07/02 13:50:48;;;;;;;767.95;719.33;;;20.50;99.90;;;;;;5075965;28;20499;-72
2021/07/02 13:53:20;;;;;;;774.53;724.47;;;20.50;99.90;;;;;;5075638;28;20168;-75
2021/07/02 13:55:48;;;;;;;775.63;726.28;;;20.40;99.90;;;;;;5075647;28;20168;-75
2021/07/02 13:58:14;;;;;;;800.33;748.63;;;20.50;99.90;;;;;;5075583;28;20171;-78
2021/07/02 14:00:42;;;;;;;853.65;797.17;;;20.40;99.90;;;;;;5075414;28;20227;-77
2021/07/02 14:03:08;;;;;;;889.45;829.63;;;20.30;99.90;;;;;;5075560;28;20167;-77
2021/07/02 14:05:35;;;;;;;849.65;794.10;;;20.40;99.90;;;;;;5074355;28;20536;-77
2021/07/02 14:08:01;;;;;;;856.83;800.40;;;20.40;99.90;;;;;;5075704;28;20168;-78
2021/07/02 14:10:27;;;;;;;852.75;797.35;;;20.30;99.90;;;;;;5075194;28;20525;-77
2021/07/02 14:12:53;;;;;;;832.20;778.13;;;20.20;99.90;;;;;;5075358;28;20168;-78
2021/07/02 14:15:20;;;;;;;874.00;816.50;;;20.20;99.90;;;;;;5075369;28;20171;-78
2021/07/02 14:17:46;;;;;;;805.03;753.65;;;20.20;99.90;;;;;;5075217;28;20250;-78
2021/07/02 14:20:12;;;;;;;907.80;846.33;;;20.30;99.90;;;;;;5075063;28;20255;-78
2021/07/02 14:22:42;;;;;;;823.00;770.47;;;20.50;99.90;;;;;;5075239;28;20168;-78
2021/07/02 14:25:10;;;;;;;797.35;746.67;;;21.00;99.90;;;;;;5073988;28;20194;-78
2021/07/02 14:27:35;;;;;;;833.00;779.00;;;21.40;99.90;;;;;;5074994;28;20580;-76
2021/07/02 14:30:01;;;;;;;789.92;739.80;;;21.60;99.90;;;;;;5073727;28;20275;-83
2021/07/02 14:32:26;;;;;;;795.58;744.60;;;21.90;99.90;;;;;;5073855;28;20687;-80
2021/07/02 14:34:52;;;;;;;678.15;637.45;;;21.90;99.90;;;;;;5074916;28;20175;-71
2021/07/02 14:37:17;;;;;;;756.10;708.67;;;21.80;99.90;;;;;;5074902;28;20553;-71
2021/07/02 14:39:43;;;;;;;636.72;598.88;;;21.80;99.90;;;;;;5074971;28;20247;-71
2021/07/02 14:42:08;;;;;;;729.17;684.00;;;21.80;99.90;;;;;;5074915;28;20168;-70
2021/07/02 14:44:34;;;;;;;642.40;604.25;;;21.70;99.90;;;;;;5074808;28;20209;-71
2021/07/02 14:47:00;;;;;;;579.97;547.05;;;21.70;99.90;;;;;;5073607;28;20172;-71
2021/07/02 14:49:25;;;;;;;601.20;566.67;;;21.80;99.90;;;;;;5073441;28;20168;-71
2021/07/02 14:51:51;;;;;;;531.13;502.15;;;22.00;99.90;;;;;;5074482;28;20330;-71
2021/07/02 14:54:17;;;;;;;518.05;490.45;;;22.10;99.90;;;;;;5074468;28;20178;-71
2021/07/02 14:56:43;;;;;;;525.15;496.95;;;22.30;99.90;;;;;;5074657;28;20167;-71
2021/07/02 14:59:08;;;;;;;438.42;416.08;;;22.20;99.90;;;;;;5074344;28;20164;-71
2021/07/02 15:01:34;;;;;;;523.35;494.90;;;22.00;99.90;;;;;;5074165;28;20229;-72
2021/07/02 15:03:59;;;;;;;691.60;649.47;;;21.70;99.90;;;;;;5074358;28;20194;-71
2021/07/02 15:06:25;;;;;;;642.63;604.35;;;21.60;99.90;;;;;;5074197;28;20566;-71
2021/07/02 15:08:50;;;;;;;688.35;646.55;;;21.70;99.90;;;;;;5074347;28;20180;-71
2021/07/02 15:11:16;;;;;;;721.13;676.83;;;21.60;99.90;;;;;;5073664;28;20207;-71
2021/07/02 15:13:42;;;;;;;581.03;548.10;;;21.90;99.90;;;;;;5074179;28;20251;-71
2021/07/02 15:16:07;;;;;;;624.28;587.53;;;21.90;99.90;;;;;;5072851;28;20183;-72
2021/07/02 15:18:34;;;;;;;643.30;604.80;;;21.60;99.90;;;;;;5074096;28;20168;-72
2021/07/02 15:20:59;;;;;;;637.88;599.63;;;21.50;99.90;;;;;;5074003;28;20640;-72
2021/07/02 15:23:25;;;;;;;702.60;659.83;;;21.50;99.90;;;;;;5074012;28;20179;-72
2021/07/02 15:25:50;;;;;;;649.20;610.28;;;21.50;99.90;;;;;;5073858;28;20191;-72
2021/07/02 15:28:16;;;;;;;704.38;661.53;;;21.30;99.90;;;;;;5074094;28;20203;-72
2021/07/02 15:31:19;;;;;;;748.08;701.83;;;21.30;99.90;;;;;;5073905;28;20202;-71
2021/07/02 15:33:46;;;;;;;698.70;656.00;;;21.30;99.90;;;;;;5073745;28;20167;-72
2021/07/02 15:36:11;;;;;;;612.17;577.00;;;21.20;99.90;;;;;;5073742;28;20207;-73
2021/07/02 15:38:37;;;;;;;637.72;600.15;;;21.20;99.90;;;;;;5072506;28;20203;-73
2021/07/02 15:41:03;;;;;;;614.40;579.08;;;21.00;99.90;;;;;;5072488;28;20571;-74
2021/07/02 15:43:29;;;;;;;643.10;605.25;;;20.80;99.90;;;;;;5073745;28;20200;-74
2021/07/02 15:45:55;;;;;;;760.85;714.30;;;20.50;99.90;;;;;;5073840;28;20570;-72
2021/07/02 15:48:20;;;;;;;800.42;750.33;;;20.30;99.90;;;;;;5073570;28;20176;-72
2021/07/02 15:50:46;;;;;;;858.67;803.22;;;20.00;99.90;;;;;;5072385;28;20195;-73
2021/07/02 15:53:11;;;;;;;852.65;797.47;;;20.00;99.90;;;;;;5073743;28;20321;-75
2021/07/02 15:55:37;;;;;;;786.88;737.75;;;20.00;99.90;;;;;;5073557;28;20255;-73
2021/07/02 15:58:03;;;;;;;889.47;831.45;;;20.00;99.90;;;;;;5073596;28;20171;-73
2021/07/02 16:00:28;;;;;;;967.22;900.63;;;20.00;99.90;;;;;;5073479;28;20253;-73
2021/07/02 16:02:54;;;;;;;801.70;751.20;;;19.90;99.90;;;;;;5073583;28;20225;-72
2021/07/02 16:05:21;;;;;;;883.00;824.80;;;19.90;99.90;;;;;;5073500;28;20171;-73
2021/07/02 16:07:48;;;;;;;875.95;818.95;;;19.90;99.90;;;;;;5073409;28;20160;-72
2021/07/02 16:10:14;;;;;;;882.42;824.58;;;19.90;99.90;;;;;;5072387;28;20175;-72
2021/07/02 16:12:39;;;;;;;906.90;846.15;;;19.90;99.90;;;;;;5073538;28;20195;-73
2021/07/02 16:15:07;;;;;;;901.58;841.33;;;20.00;99.90;;;;;;5073529;28;20225;-73
2021/07/02 16:17:33;;;;;;;931.63;868.05;;;20.00;99.90;;;;;;5073291;28;20579;-72
2021/07/02 16:19:59;;;;;;;928.38;865.35;;;20.10;99.90;;;;;;5073594;28;20203;-72
2021/07/02 16:22:25;;;;;;;949.90;884.95;;;20.20;99.90;;;;;;5074185;28;20621;-72
2021/07/02 16:24:53;;;;;;;997.85;926.47;;;20.50;99.90;;;;;;5077262;28;20200;-72
2021/07/02 16:27:19;;;;;;;929.28;866.45;;;20.70;99.90;;;;;;5077392;28;20657;-72
2021/07/02 16:29:44;;;;;;;731.35;686.85;;;21.10;99.90;;;;;;5077200;28;20182;-73
2021/07/02 16:32:10;;;;;;;768.58;720.92;;;21.20;99.90;;;;;;5077332;28;20191;-73
2021/07/02 16:34:35;;;;;;;746.38;700.80;;;21.10;99.90;;;;;;5076104;28;20175;-73
2021/07/02 16:37:01;;;;;;;787.45;738.80;;;21.00;99.90;;;;;;5076001;28;20168;-73
2021/07/02 16:39:26;;;;;;;823.00;771.05;;;20.70;99.90;;;;;;5077152;28;20293;-73
2021/07/02 16:41:52;;;;;;;836.80;783.75;;;20.50;99.90;;;;;;5076892;28;20168;-73
2021/07/02 16:44:18;;;;;;;872.42;816.35;;;20.30;99.90;;;;;;5077142;28;20178;-73
2021/07/02 16:46:44;;;;;;;925.90;863.58;;;20.10;99.90;;;;;;5075788;28;20570;-73
2021/07/02 16:49:10;;;;;;;912.50;852.30;;;20.10;99.90;;;;;;5076994;28;20172;-73
2021/07/02 16:51:35;;;;;;;926.17;863.65;;;20.20;99.90;;;;;;5076843;28;20552;-73
2021/07/02 16:54:01;;;;;;;943.08;878.70;;;20.30;99.90;;;;;;5076651;28;20176;-73
2021/07/02 16:56:27;;;;;;;908.97;848.35;;;20.60;99.90;;;;;;5076766;28;20164;-73
2021/07/02 16:58:52;;;;;;;910.47;849.75;;;20.90;99.90;;;;;;5076632;28;20251;-72
2021/07/02 17:01:18;;;;;;;800.67;751.45;;;21.20;99.90;;;;;;5076245;28;20700;-73
2021/07/02 17:03:44;;;;;;;778.90;730.67;;;21.50;99.90;;;;;;5076365;28;20179;-73
2021/07/02 17:06:10;;;;;;;755.70;709.05;;;21.60;99.90;;;;;;5076388;28;20526;-73
2021/07/02 17:08:36;;;;;;;697.72;655.33;;;21.90;99.90;;;;;;5076281;28;20637;-73
2021/07/02 17:11:02;;;;;;;613.53;577.47;;;21.90;99.90;;;;;;5076241;28;20283;-73
2021/07/02 17:13:28;;;;;;;687.97;646.55;;;21.90;99.90;;;;;;5076304;28;20550;-72
2021/07/02 17:15:53;;;;;;;749.40;702.75;;;22.00;99.90;;;;;;5076183;28;20224;-72
2021/07/02 17:18:22;;;;;;;712.08;668.42;;;22.20;99.90;;;;;;5076122;28;20555;-72
2021/07/02 17:20:50;;;;;;;794.90;744.28;;;22.20;99.90;;;;;;5076054;28;20633;-72
2021/07/02 17:23:16;;;;;;;688.22;646.30;;;22.40;99.90;;;;;;5076241;28;20172;-73
2021/07/02 17:25:41;;;;;;;479.88;454.60;;;22.50;99.90;;;;;;5075937;28;20553;-73
2021/07/02 17:28:07;;;;;;;535.50;505.88;;;22.40;99.90;;;;;;5075938;28;20669;-73
2021/07/02 17:30:32;;;;;;;572.00;539.40;;;22.30;99.90;;;;;;5076199;28;20182;-73
2021/07/02 17:32:58;;;;;;;552.75;522.22;;;22.20;99.90;;;;;;5075716;28;20167;-72
2021/07/02 17:35:24;;;;;;;720.28;675.67;;;22.30;99.90;;;;;;5076200;28;20160;-73
2021/07/02 17:37:49;;;;;;;690.78;648.65;;;22.20;99.90;;;;;;5075778;28;20175;-73
2021/07/02 17:40:16;;;;;;;580.15;546.97;;;22.30;99.90;;;;;;5075748;28;20642;-73
2021/07/02 17:42:43;;;;;;;709.95;666.63;;;22.30;99.90;;;;;;5075803;28;20179;-73
2021/07/02 17:45:11;;;;;;;518.85;490.80;;;22.40;99.90;;;;;;5075769;28;20203;-73
2021/07/02 17:47:37;;;;;;;645.28;606.67;;;22.50;99.90;;;;;;5075523;28;20167;-72
2021/07/02 17:50:08;;;;;;;499.38;472.95;;;22.50;99.90;;;;;;5075537;28;20164;-73
2021/07/02 17:52:34;;;;;;;535.05;505.88;;;22.50;99.90;;;;;;5075626;28;20200;-72
2021/07/02 17:55:00;;;;;;;472.17;448.10;;;22.50;99.90;;;;;;5075648;28;20167;-72
2021/07/02 17:57:25;;;;;;;476.25;451.45;;;22.50;99.90;;;;;;5075418;28;20242;-73
2021/07/02 17:59:53;;;;;;;490.13;464.52;;;22.50;99.90;;;;;;5075367;28;20535;-72
2021/07/02 18:02:19;;;;;;;602.95;568.15;;;22.50;99.90;;;;;;5075157;28;20298;-72
2021/07/02 18:04:44;;;;;;;532.45;503.83;;;22.50;99.90;;;;;;5075223;28;20248;-73
2021/07/02 18:07:10;;;;;;;625.17;588.50;;;22.60;99.90;;;;;;5075299;28;20178;-73
2021/07/02 18:09:35;;;;;;;561.72;530.72;;;22.60;99.90;;;;;;5075230;28;20688;-70
2021/07/02 18:12:01;;;;;;;481.85;456.73;;;22.70;99.90;;;;;;5074809;28;20215;-70
2021/07/02 18:14:27;;;;;;;484.80;459.48;;;22.70;99.90;;;;;;5074914;28;20521;-70
2021/07/02 18:16:56;;;;;;;518.83;490.90;;;22.60;99.90;;;;;;5075284;28;20214;-70
2021/07/02 18:19:22;;;;;;;549.28;518.67;;;22.70;99.90;;;;;;5073933;28;20259;-70
2021/07/02 18:21:48;;;;;;;443.02;420.63;;;22.60;99.90;;;;;;5075085;28;20164;-70
2021/07/02 18:24:14;;;;;;;482.95;458.05;;;22.50;99.90;;;;;;5073699;28;20172;-70
2021/07/02 18:26:39;;;;;;;432.83;410.85;;;22.50;99.90;;;;;;5074808;28;20656;-70
2021/07/02 18:29:05;;;;;;;564.72;533.13;;;22.30;99.90;;;;;;5073781;28;20686;-70
2021/07/02 18:31:30;;;;;;;497.92;469.77;;;22.40;99.90;;;;;;5073704;28;20203;-70
2021/07/02 18:33:56;;;;;;;607.97;572.55;;;22.30;99.90;;;;;;5074974;28;20164;-70
2021/07/02 18:36:21;;;;;;;694.05;651.83;;;22.30;99.90;;;;;;5074867;28;20509;-70
2021/07/02 18:38:47;;;;;;;692.38;650.40;;;22.40;99.90;;;;;;5073640;28;20171;-70
2021/07/02 18:41:14;;;;;;;660.42;621.08;;;22.60;99.90;;;;;;5074651;28;20183;-70
2021/07/02 18:43:39;;;;;;;657.00;618.03;;;22.70;99.90;;;;;;5074718;28;20684;-70
2021/07/02 18:46:05;;;;;;;601.65;567.10;;;22.80;99.90;;;;;;5073698;28;20225;-70
2021/07/02 18:48:31;;;;;;;762.35;715.53;;;23.10;99.90;;;;;;5074547;28;20172;-70
2021/07/02 18:50:56;;;;;;;657.80;619.17;;;23.20;99.90;;;;;;5074344;28;20240;-70
2021/07/02 18:53:23;;;;;;;762.17;714.92;;;23.20;99.90;;;;;;5074496;28;20621;-70
2021/07/02 18:55:49;;;;;;;710.97;668.13;;;23.20;99.90;;;;;;5074492;28;20198;-70
2021/07/02 18:58:14;;;;;;;704.83;662.58;;;23.30;99.90;;;;;;5074532;28;20171;-70
2021/07/02 19:00:40;;;;;;;725.72;681.60;;;23.20;99.90;;;;;;5073132;28;20264;-70
2021/07/02 19:03:06;;;;;;;786.40;737.65;;;23.10;99.90;;;;;;5074541;28;20171;-70
2021/07/02 19:05:31;;;;;;;880.28;821.75;;;23.10;99.90;;;;;;5074266;28;20522;-70
2021/07/02 19:07:57;;;;;;;966.55;898.08;;;23.00;99.90;;;;;;5074271;28;20246;-70
2021/07/02 19:10:23;;;;;;;846.42;791.72;;;22.90;99.90;;;;;;5074171;28;20176;-70
2021/07/02 19:12:50;;;;;;;775.92;727.50;;;22.80;99.90;;;;;;5074342;28;20200;-70
2021/07/02 19:15:18;;;;;;;857.47;802.10;;;22.70;99.90;;;;;;5074280;28;20160;-70
2021/07/02 19:17:46;;;;;;;862.65;806.03;;;22.50;99.90;;;;;;5074155;28;20270;-70
2021/07/02 19:20:15;;;;;;;807.50;756.10;;;22.30;99.90;;;;;;5074076;28;20172;-70
2021/07/02 19:22:41;;;;;;;833.28;779.38;;;22.00;99.90;;;;;;5072999;28;20172;-70
2021/07/02 19:25:09;;;;;;;874.42;816.60;;;21.70;99.90;;;;;;5072756;28;20199;-70
2021/07/02 19:27:35;;;;;;;912.58;850.53;;;21.40;99.90;;;;;;5073978;28;20174;-70
